West Lafayette, IN

3:01 AM EDT on June 02, 2015 (GMT -0400)
Purdue Univ | | Change Station
CLOSE
Current Station
Airport
Location: Lafayette,
Elevation: 604 ft
Nearby Weather Stations
Active Advisory: Flood Warning

Elev 604 ft 40.41 °N, 86.93 °W | Updated 7 minutes ago

Clear
Clear
49 °F
Feels Like 49 °F
N
4
Wind Variable Wind from East

Today
High -- | Low -- °F
--% Chance of Precip.
Yesterday
High -- | Low -- °F
Precip. -- in
6:19 AM 9:12 PM
Full, 100% visible
Pressure 30.16 in
Visibility 7.0 miles
Clouds Clear
Dew Point 48 °F
Humidity 97%
Rainfall 0.00 in
Snow Depth Not available.
UV 0 out of 12
Pollen 7.10 out of 12
Air Quality Not available.
Flu Activity No Activity
METAR KLAF 020654Z AUTO 10003KT 7SM CLR 09/09 A3015 RMK AO2 SLP211 T00940089

More Conditions Fewer Conditions

Pressure 30.16 in
Visibility 7.0 miles
Clouds Clear
Dew Point 48 °F
Humidity 97%
Rainfall 0.00 in
Snow Depth Not available.
UV 0 out of 12
Pollen 7.10 out of 12
Air Quality Not available.
Flu Activity No Activity
METAR KLAF 020654Z AUTO 10003KT 7SM CLR 09/09 A3015 RMK AO2 SLP211 T00940089

More Conditions Fewer Conditions

10-Day Weather Forecast

Almanac

Astronomy

Jun. 02, 2015 Rise Set
Actual Time
Civil Twilight
Nautical Twilight
Astronomical Twilight
Moon
Length of Visible Light
Length of Day
Tomorrow will be .
, % of the Moon is Illuminated

Today's Extremes

State Highs State Lows

Community

WunderPhotos

Upload Photos

1,825,922 photos uploaded!

WunderBlogs® & News

Nearby

Air Quality

  Air Quality AQ Index Pollutant
Not available.

Snow Depth

Station Depth Elevation

Earthquake Activity

City Distance Mag. Time & Date
Minimum magnitude displayed is 2.5.

Coastal Water Temperatures

Place Temperature

Stations

Nearby Weather Stations

Station Location Temp. Windchill Dew Point Humidity Wind Precip. Elev Updated Type
                   
Flood Warning
Statement as of 9:53 PM EDT on June 01, 2015

The Flood Warning continues for
the Wabash River at Lafayette.
* Until Thursday evening.
* At 9:31 PM Monday the stage was 13.1 feet.
* Flood stage is 11.0 feet.
* Minor flooding is occurring and minor flooding is forecast.
* Forecast... the river will continue rising to near 13.8 feet by
tomorrow early afternoon. The river will fall below flood stage
Thursday morning.
* At 14.0 feet... lowland flooding is in progress. High water affects
river Cabins near north 9th street. Low County roads are nearly
impassable. Tapawingo park in West Lafayette begins to flood.


Lat... Lon 4056 8673 4048 8688 4040 8709 4033 8709
      4040 8688 4054 8670